createdAt,value
2023-05-06T00:00:10.711Z,30.26
2023-05-06T00:01:15.015Z,30.26
2023-05-06T00:02:17.532Z,30.26
2023-05-06T00:03:19.587Z,30.26
2023-05-06T00:04:22.289Z,30.28
2023-05-06T00:05:24.195Z,30.27
2023-05-06T00:06:27.564Z,30.27
2023-05-06T00:07:29.393Z,30.27
2023-05-06T00:08:31.267Z,30.28
2023-05-06T00:09:33.514Z,30.26
2023-05-06T00:10:35.543Z,30.29
2023-05-06T00:11:37.444Z,30.28
2023-05-06T00:12:40.082Z,30.28
2023-05-06T00:13:42.125Z,30.28
2023-05-06T00:14:44.059Z,30.29
2023-05-06T00:15:45.949Z,30.29
2023-05-06T00:16:47.991Z,30.29
2023-05-06T00:17:50.102Z,30.29
2023-05-06T00:18:52.029Z,30.28
2023-05-06T00:19:56.158Z,30.27
2023-05-06T00:20:58.037Z,30.29
2023-05-06T00:22:00.803Z,30.29
2023-05-06T00:23:02.709Z,30.29
2023-05-06T00:24:05.620Z,30.29
2023-05-06T00:25:08.341Z,30.29
2023-05-06T00:26:11.101Z,30.30
2023-05-06T00:27:13.239Z,30.29
2023-05-06T00:28:15.204Z,30.28
2023-05-06T00:29:17.618Z,30.26
2023-05-06T00:30:19.843Z,30.28
2023-05-06T00:31:22.412Z,30.29
2023-05-06T00:32:24.511Z,30.28
2023-05-06T00:33:27.230Z,30.28
2023-05-06T00:34:29.274Z,30.28
2023-05-06T00:35:31.210Z,30.28
2023-05-06T00:36:33.187Z,30.26
2023-05-06T00:37:35.302Z,30.27
2023-05-06T00:38:37.211Z,30.25
2023-05-06T00:39:39.095Z,30.26
2023-05-06T00:40:41.377Z,30.26
2023-05-06T00:41:43.235Z,30.26
2023-05-06T00:42:45.069Z,30.25
2023-05-06T00:43:46.932Z,30.24
2023-05-06T00:44:49.587Z,30.25
2023-05-06T00:45:51.990Z,30.24
2023-05-06T00:46:54.100Z,30.23
2023-05-06T00:47:57.646Z,30.25
2023-05-06T00:48:59.902Z,30.26
2023-05-06T00:50:02.130Z,30.24
2023-05-06T00:51:05.026Z,30.22
2023-05-06T00:52:07.951Z,30.21
2023-05-06T00:53:10.810Z,30.23
2023-05-06T00:54:13.429Z,30.21
2023-05-06T00:55:16.168Z,30.22
2023-05-06T00:56:20.517Z,30.23
2023-05-06T00:57:23.589Z,30.21
2023-05-06T00:58:25.631Z,30.21
2023-05-06T00:59:28.408Z,30.19
2023-05-06T01:00:30.862Z,30.19
2023-05-06T01:01:33.295Z,30.20
2023-05-06T01:02:46.413Z,30.20
2023-05-06T01:03:49.793Z,30.20
2023-05-06T01:04:52.192Z,30.20
2023-05-06T01:06:04.542Z,30.21
2023-05-06T01:07:29.105Z,30.23
2023-05-06T01:08:42.271Z,30.20
2023-05-06T01:09:59.276Z,30.21
2023-05-06T01:11:24.645Z,30.20
2023-05-06T01:13:01.852Z,30.21
2023-05-06T01:14:17.510Z,30.16
2023-05-06T01:15:41.461Z,30.19
2023-05-06T01:16:44.949Z,30.15
2023-05-06T01:17:52.203Z,30.15
2023-05-06T01:18:55.541Z,30.13
2023-05-06T01:20:01.902Z,30.13
2023-05-06T01:21:05.983Z,30.14
2023-05-06T01:22:10.576Z,30.09
2023-05-06T01:23:13.548Z,30.11
2023-05-06T01:24:15.433Z,30.10
2023-05-06T01:25:22.491Z,30.11
2023-05-06T01:26:25.356Z,30.10
2023-05-06T01:27:29.283Z,30.08
2023-05-06T01:28:31.174Z,30.11
2023-05-06T01:29:37.257Z,30.09
2023-05-06T01:31:11.982Z,30.14
2023-05-06T01:32:20.174Z,30.10
2023-05-06T01:33:48.564Z,30.12
2023-05-06T01:35:18.979Z,30.08
2023-05-06T01:36:47.406Z,30.12
2023-05-06T01:38:30.092Z,30.12
2023-05-06T01:39:34.117Z,30.05
2023-05-06T01:40:36.984Z,30.02
2023-05-06T01:41:42.011Z,30.02
2023-05-06T01:42:51.569Z,30.02
2023-05-06T01:43:55.278Z,29.99
2023-05-06T01:45:02.055Z,30.00
2023-05-06T01:46:05.194Z,29.99
2023-05-06T01:47:10.699Z,30.00
2023-05-06T01:48:12.565Z,29.99
2023-05-06T01:49:17.245Z,30.01
2023-05-06T01:50:19.778Z,29.99
2023-05-06T01:51:23.160Z,29.99
2023-05-06T01:52:26.707Z,29.99
2023-05-06T01:53:28.677Z,29.97
2023-05-06T01:54:30.697Z,30.00
2023-05-06T01:55:32.733Z,29.98
2023-05-06T01:56:34.674Z,29.98
2023-05-06T01:57:36.710Z,29.98
2023-05-06T01:58:38.608Z,29.98
2023-05-06T01:59:40.475Z,29.96
2023-05-06T02:00:42.563Z,29.95
2023-05-06T02:01:44.609Z,29.98
2023-05-06T02:02:47.322Z,29.98
2023-05-06T02:03:49.520Z,29.95
2023-05-06T02:04:53.523Z,29.96
2023-05-06T02:05:55.744Z,29.97
2023-05-06T02:06:58.402Z,29.96
2023-05-06T02:08:00.486Z,29.96
2023-05-06T02:09:02.745Z,29.96
2023-05-06T02:10:06.085Z,29.94
2023-05-06T02:11:08.049Z,29.95
2023-05-06T02:12:10.025Z,29.94
2023-05-06T02:13:12.478Z,29.94
2023-05-06T02:14:14.463Z,29.95
2023-05-06T02:15:16.352Z,29.95
2023-05-06T02:16:18.604Z,29.95
2023-05-06T02:17:20.883Z,29.95
2023-05-06T02:18:22.992Z,29.93
2023-05-06T02:19:24.913Z,29.93
2023-05-06T02:20:26.871Z,29.93
2023-05-06T02:21:28.926Z,29.94
2023-05-06T02:22:30.707Z,29.93
2023-05-06T02:23:32.543Z,29.95
2023-05-06T02:24:34.392Z,29.93
2023-05-06T02:25:36.471Z,29.92
2023-05-06T02:26:38.391Z,29.93
2023-05-06T02:27:40.321Z,29.90
2023-05-06T02:28:42.515Z,29.92
2023-05-06T02:29:44.880Z,29.91
2023-05-06T02:30:46.860Z,29.90
2023-05-06T02:31:48.772Z,29.90
2023-05-06T02:32:50.798Z,29.91
2023-05-06T02:33:52.729Z,29.89
2023-05-06T02:34:54.585Z,29.90
2023-05-06T02:35:56.479Z,29.90
2023-05-06T02:36:58.407Z,29.88
2023-05-06T02:38:01.011Z,29.90
2023-05-06T02:39:02.901Z,29.88
2023-05-06T02:40:06.644Z,29.89
2023-05-06T02:41:08.600Z,29.89
2023-05-06T02:42:15.874Z,29.88
2023-05-06T02:43:17.759Z,29.89
2023-05-06T02:44:19.577Z,29.87
2023-05-06T02:45:21.555Z,29.87
2023-05-06T02:46:23.514Z,29.86
2023-05-06T02:47:25.487Z,29.88
2023-05-06T02:48:27.440Z,29.87
2023-05-06T02:49:29.301Z,29.86
2023-05-06T02:50:31.421Z,29.86
2023-05-06T02:51:33.276Z,29.86
2023-05-06T02:52:35.317Z,29.86
2023-05-06T02:53:37.144Z,29.86
2023-05-06T02:54:39.086Z,29.86
2023-05-06T02:55:40.951Z,29.85
2023-05-06T02:56:43.317Z,29.85
2023-05-06T02:57:45.294Z,29.85
2023-05-06T02:58:47.262Z,29.84
2023-05-06T02:59:49.208Z,29.83
2023-05-06T03:00:51.368Z,29.83
2023-05-06T03:01:53.660Z,29.83
2023-05-06T03:02:55.771Z,29.84
2023-05-06T03:03:57.774Z,29.83
2023-05-06T03:04:59.655Z,29.82
2023-05-06T03:06:01.519Z,29.82
2023-05-06T03:07:03.629Z,29.83
2023-05-06T03:08:05.988Z,29.82
2023-05-06T03:09:08.776Z,29.82
2023-05-06T03:10:11.460Z,29.80
2023-05-06T03:11:13.237Z,29.79
2023-05-06T03:12:15.436Z,29.80
2023-05-06T03:13:17.328Z,29.80
2023-05-06T03:14:19.258Z,29.81
2023-05-06T03:15:21.125Z,29.80
2023-05-06T03:16:23.268Z,29.79
2023-05-06T03:17:25.518Z,29.78
2023-05-06T03:18:27.467Z,29.80
2023-05-06T03:19:29.373Z,29.78
2023-05-06T03:20:31.257Z,29.77
2023-05-06T03:21:33.538Z,29.79
2023-05-06T03:22:35.954Z,29.76
2023-05-06T03:23:38.059Z,29.77
2023-05-06T03:24:40.119Z,29.74
2023-05-06T03:25:42.274Z,29.75
2023-05-06T03:26:44.209Z,29.75
2023-05-06T03:27:46.184Z,29.76
2023-05-06T03:28:48.211Z,29.75
2023-05-06T03:29:50.051Z,29.75
2023-05-06T03:30:51.998Z,29.74
2023-05-06T03:31:57.079Z,29.74
2023-05-06T03:33:01.240Z,29.74
2023-05-06T03:34:03.223Z,29.73
2023-05-06T03:35:07.508Z,29.74
2023-05-06T03:36:09.559Z,29.73
2023-05-06T03:37:11.647Z,29.73
2023-05-06T03:38:13.542Z,29.71
2023-05-06T03:39:15.378Z,29.69
2023-05-06T03:40:17.643Z,29.71
2023-05-06T03:41:20.177Z,29.69
2023-05-06T03:42:22.232Z,29.70
2023-05-06T03:43:24.164Z,29.69
2023-05-06T03:44:26.044Z,29.69
2023-05-06T03:45:27.952Z,29.69
2023-05-06T03:46:29.804Z,29.70
2023-05-06T03:47:31.703Z,29.66
2023-05-06T03:48:33.528Z,29.66
2023-05-06T03:49:35.325Z,29.67
2023-05-06T03:50:37.862Z,29.68
2023-05-06T03:51:39.922Z,29.66
2023-05-06T03:52:41.955Z,29.64
2023-05-06T03:53:43.861Z,29.63
2023-05-06T03:54:45.834Z,29.65
2023-05-06T03:55:47.788Z,29.64
2023-05-06T03:56:49.674Z,29.64
2023-05-06T03:57:51.572Z,29.65
2023-05-06T03:58:54.603Z,29.63
2023-05-06T03:59:56.721Z,29.60
2023-05-06T04:01:01.183Z,29.62
2023-05-06T04:02:03.168Z,29.63
2023-05-06T04:03:05.147Z,29.61
2023-05-06T04:04:07.162Z,29.64
2023-05-06T04:05:09.704Z,29.61
2023-05-06T04:06:12.161Z,29.61
2023-05-06T04:07:14.132Z,29.61
2023-05-06T04:08:17.141Z,29.60
2023-05-06T04:09:19.302Z,29.60
2023-05-06T04:10:21.811Z,29.58
2023-05-06T04:11:23.684Z,29.58
2023-05-06T04:12:25.951Z,29.58
2023-05-06T04:13:27.861Z,29.58
2023-05-06T04:14:29.824Z,29.57
2023-05-06T04:15:34.433Z,29.59
2023-05-06T04:16:36.383Z,29.59
2023-05-06T04:17:38.400Z,29.57
2023-05-06T04:18:40.224Z,29.56
2023-05-06T04:19:42.240Z,29.58
2023-05-06T04:20:48.117Z,29.54
2023-05-06T04:21:49.958Z,29.56
2023-05-06T04:22:52.333Z,29.55
2023-05-06T04:23:54.729Z,29.56
2023-05-06T04:24:56.655Z,29.55
2023-05-06T04:25:59.331Z,29.53
2023-05-06T04:27:04.350Z,29.54
2023-05-06T04:28:06.983Z,29.53
2023-05-06T04:29:09.822Z,29.55
2023-05-06T04:30:12.835Z,29.52
2023-05-06T04:31:14.749Z,29.52
2023-05-06T04:32:17.988Z,29.53
2023-05-06T04:33:19.840Z,29.53
2023-05-06T04:34:21.912Z,29.53
2023-05-06T04:35:23.883Z,29.51
2023-05-06T04:36:25.945Z,29.50
2023-05-06T04:37:28.511Z,29.51
2023-05-06T04:38:32.108Z,29.52
2023-05-06T04:39:34.254Z,29.50
2023-05-06T04:40:39.380Z,29.49
2023-05-06T04:41:41.908Z,29.51
2023-05-06T04:42:43.761Z,29.49
2023-05-06T04:43:46.157Z,29.49
2023-05-06T04:44:48.870Z,29.48
2023-05-06T04:45:50.865Z,29.48
2023-05-06T04:46:52.748Z,29.48
2023-05-06T04:47:54.679Z,29.48
2023-05-06T04:48:58.285Z,29.49
2023-05-06T04:50:00.233Z,29.47
2023-05-06T04:51:04.320Z,29.49
2023-05-06T04:52:06.577Z,29.48
2023-05-06T04:53:09.695Z,29.48
2023-05-06T04:54:11.579Z,29.45
2023-05-06T04:55:13.623Z,29.46
2023-05-06T04:56:15.676Z,29.47
2023-05-06T04:57:17.544Z,29.48
2023-05-06T04:58:19.676Z,29.46
2023-05-06T04:59:21.547Z,29.48
2023-05-06T05:00:26.164Z,29.47
2023-05-06T05:01:28.388Z,29.47
2023-05-06T05:02:30.488Z,29.46
2023-05-06T05:03:32.586Z,29.45
2023-05-06T05:04:34.637Z,29.46
2023-05-06T05:05:36.516Z,29.44
2023-05-06T05:06:38.434Z,29.44
2023-05-06T05:07:40.311Z,29.45
2023-05-06T05:08:42.127Z,29.47
2023-05-06T05:09:44.072Z,29.46
2023-05-06T05:10:45.992Z,29.43
2023-05-06T05:11:48.047Z,29.46
2023-05-06T05:12:49.963Z,29.45
2023-05-06T05:13:51.858Z,29.44
2023-05-06T05:14:53.763Z,29.44
2023-05-06T05:15:56.042Z,29.45
2023-05-06T05:16:57.951Z,29.46
2023-05-06T05:17:59.902Z,29.44
2023-05-06T05:19:03.632Z,29.45
2023-05-06T05:20:07.376Z,29.45
2023-05-06T05:21:09.201Z,29.46
2023-05-06T05:22:11.205Z,29.44
2023-05-06T05:23:13.121Z,29.44
2023-05-06T05:24:15.389Z,29.44
2023-05-06T05:25:17.665Z,29.44
2023-05-06T05:26:19.618Z,29.42
2023-05-06T05:27:21.805Z,29.45
2023-05-06T05:28:24.029Z,29.45
2023-05-06T05:29:26.039Z,29.45
2023-05-06T05:30:27.886Z,29.44
2023-05-06T05:31:31.294Z,29.45
2023-05-06T05:32:33.367Z,29.44
2023-05-06T05:33:35.336Z,29.45
2023-05-06T05:34:37.701Z,29.44
2023-05-06T05:35:39.786Z,29.45
2023-05-06T05:36:41.996Z,29.44
2023-05-06T05:37:44.016Z,29.42
2023-05-06T05:38:47.894Z,29.42
2023-05-06T05:39:50.146Z,29.44
2023-05-06T05:40:52.088Z,29.44
2023-05-06T05:41:54.133Z,29.44
2023-05-06T05:42:56.200Z,29.43
2023-05-06T05:43:58.068Z,29.43
2023-05-06T05:45:00.642Z,29.44
2023-05-06T05:46:02.787Z,29.43
2023-05-06T05:47:04.684Z,29.43
2023-05-06T05:48:06.743Z,29.44
2023-05-06T05:49:08.852Z,29.44
2023-05-06T05:50:10.933Z,29.44
2023-05-06T05:51:12.783Z,29.44
2023-05-06T05:52:14.607Z,29.45
2023-05-06T05:53:16.525Z,29.44
2023-05-06T05:54:18.299Z,29.44
2023-05-06T05:55:21.630Z,29.44
2023-05-06T05:56:23.665Z,29.44
2023-05-06T05:57:25.576Z,29.45
2023-05-06T05:58:27.424Z,29.43
2023-05-06T05:59:29.838Z,29.43
2023-05-06T06:00:31.748Z,29.43
2023-05-06T06:01:33.794Z,29.44
2023-05-06T06:02:36.209Z,29.43
2023-05-06T06:03:38.652Z,29.42
2023-05-06T06:04:41.067Z,29.41
2023-05-06T06:05:43.001Z,29.43
2023-05-06T06:06:45.120Z,29.41
2023-05-06T06:07:47.269Z,29.44
2023-05-06T06:08:49.133Z,29.43
2023-05-06T06:09:51.722Z,29.44
2023-05-06T06:10:53.619Z,29.42
2023-05-06T06:11:55.631Z,29.45
2023-05-06T06:12:57.830Z,29.44
2023-05-06T06:13:59.728Z,29.47
2023-05-06T06:15:01.836Z,29.44
2023-05-06T06:16:05.017Z,29.43
2023-05-06T06:17:07.355Z,29.45
2023-05-06T06:18:09.560Z,29.46
2023-05-06T06:19:11.984Z,29.45
2023-05-06T06:20:14.257Z,29.46
2023-05-06T06:21:16.197Z,29.45
2023-05-06T06:22:18.092Z,29.44
2023-05-06T06:23:20.981Z,29.44
2023-05-06T06:24:22.981Z,29.43
2023-05-06T06:25:25.454Z,29.46
2023-05-06T06:26:27.458Z,29.44
2023-05-06T06:27:29.544Z,29.44
2023-05-06T06:28:31.637Z,29.45
2023-05-06T06:29:33.862Z,29.44
2023-05-06T06:30:36.005Z,29.45
2023-05-06T06:31:40.292Z,29.43
2023-05-06T06:32:54.103Z,29.47
2023-05-06T06:33:56.301Z,29.46
2023-05-06T06:34:58.774Z,29.43
2023-05-06T06:36:00.805Z,29.45
2023-05-06T06:37:02.695Z,29.45
2023-05-06T06:38:05.024Z,29.46
2023-05-06T06:39:07.388Z,29.46
2023-05-06T06:40:11.105Z,29.48
2023-05-06T06:41:13.064Z,29.47
2023-05-06T06:42:14.960Z,29.48
2023-05-06T06:43:18.290Z,29.48
2023-05-06T06:44:20.129Z,29.47
2023-05-06T06:45:23.515Z,29.49
2023-05-06T06:46:25.879Z,29.49
2023-05-06T06:47:27.746Z,29.49
2023-05-06T06:48:29.677Z,29.48
2023-05-06T06:49:31.799Z,29.48
2023-05-06T06:50:33.652Z,29.49
2023-05-06T06:51:35.664Z,29.50
2023-05-06T06:52:37.703Z,29.50
2023-05-06T06:53:39.812Z,29.50
2023-05-06T06:54:41.620Z,29.51
2023-05-06T06:55:46.915Z,29.54
2023-05-06T06:56:48.927Z,29.51
2023-05-06T06:57:51.049Z,29.52
2023-05-06T06:58:53.484Z,29.51
2023-05-06T06:59:56.184Z,29.53
2023-05-06T07:00:58.183Z,29.54
2023-05-06T07:02:00.032Z,29.53
2023-05-06T07:03:02.088Z,29.55
2023-05-06T07:04:07.044Z,29.55
2023-05-06T07:05:10.080Z,29.55
2023-05-06T07:06:12.522Z,29.55
2023-05-06T07:07:14.835Z,29.57
2023-05-06T07:08:17.345Z,29.57
2023-05-06T07:09:19.302Z,29.57
2023-05-06T07:10:22.376Z,29.56
2023-05-06T07:11:24.467Z,29.57
2023-05-06T07:12:26.997Z,29.55
2023-05-06T07:13:28.854Z,29.56
2023-05-06T07:14:30.796Z,29.58
2023-05-06T07:15:32.853Z,29.56
2023-05-06T07:16:35.011Z,29.57
2023-05-06T07:17:36.985Z,29.58
2023-05-06T07:18:38.873Z,29.58
2023-05-06T07:19:40.792Z,29.59
2023-05-06T07:20:42.698Z,29.59
2023-05-06T07:21:44.907Z,29.58
2023-05-06T07:22:46.844Z,29.59
2023-05-06T07:23:48.745Z,29.59
2023-05-06T07:24:50.671Z,29.59
2023-05-06T07:25:52.500Z,29.60
2023-05-06T07:26:54.368Z,29.59
2023-05-06T07:27:56.322Z,29.58
2023-05-06T07:28:58.318Z,29.59
2023-05-06T07:30:00.900Z,29.60
2023-05-06T07:31:02.949Z,29.59
2023-05-06T07:32:05.421Z,29.59
2023-05-06T07:33:07.784Z,29.58
2023-05-06T07:34:09.781Z,29.58
2023-05-06T07:35:11.938Z,29.58
2023-05-06T07:36:14.154Z,29.60
2023-05-06T07:37:16.247Z,29.58
2023-05-06T07:38:21.112Z,29.60
2023-05-06T07:39:23.236Z,29.61
2023-05-06T07:40:25.329Z,29.61
2023-05-06T07:41:27.300Z,29.60
2023-05-06T07:42:29.248Z,29.61
2023-05-06T07:43:31.185Z,29.60
2023-05-06T07:44:33.106Z,29.61
2023-05-06T07:45:35.009Z,29.62
2023-05-06T07:46:38.593Z,29.62
2023-05-06T07:47:40.901Z,29.63
2023-05-06T07:48:42.840Z,29.63
2023-05-06T07:49:44.784Z,29.64
2023-05-06T07:50:46.744Z,29.61
2023-05-06T07:51:48.643Z,29.63
2023-05-06T07:52:50.768Z,29.63
2023-05-06T07:53:52.597Z,29.61
2023-05-06T07:54:54.510Z,29.61
2023-05-06T07:56:02.176Z,29.62
2023-05-06T07:57:04.336Z,29.63
2023-05-06T07:58:06.319Z,29.62
2023-05-06T07:59:08.194Z,29.63
2023-05-06T08:00:11.675Z,29.63
2023-05-06T08:01:13.485Z,29.63
2023-05-06T08:02:16.134Z,29.64
2023-05-06T08:03:18.080Z,29.65
2023-05-06T08:04:20.182Z,29.64
2023-05-06T08:05:22.173Z,29.64
2023-05-06T08:06:24.111Z,29.66
2023-05-06T08:07:25.964Z,29.66
2023-05-06T08:08:28.133Z,29.66
2023-05-06T08:09:30.333Z,29.66
2023-05-06T08:10:32.376Z,29.66
2023-05-06T08:11:34.576Z,29.68
2023-05-06T08:12:37.420Z,29.67
2023-05-06T08:13:39.577Z,29.70
2023-05-06T08:14:41.503Z,29.71
2023-05-06T08:15:43.396Z,29.71
2023-05-06T08:16:45.551Z,29.70
2023-05-06T08:17:47.491Z,29.70
2023-05-06T08:18:49.607Z,29.73
2023-05-06T08:19:51.535Z,29.72
2023-05-06T08:20:53.487Z,29.75
2023-05-06T08:21:55.467Z,29.73
2023-05-06T08:22:57.780Z,29.73
2023-05-06T08:23:59.612Z,29.77
2023-05-06T08:25:02.082Z,29.78
2023-05-06T08:26:04.385Z,29.77
2023-05-06T08:27:06.338Z,29.80
2023-05-06T08:28:08.278Z,29.79
2023-05-06T08:29:10.297Z,29.79
2023-05-06T08:30:13.130Z,29.81
2023-05-06T08:31:15.083Z,29.82
2023-05-06T08:32:17.047Z,29.83
2023-05-06T08:33:21.812Z,29.84
2023-05-06T08:34:24.069Z,29.86
2023-05-06T08:35:25.937Z,29.84
2023-05-06T08:36:27.972Z,29.86
2023-05-06T08:37:30.924Z,29.87
2023-05-06T08:38:33.036Z,29.88
2023-05-06T08:39:35.119Z,29.87
2023-05-06T08:40:44.087Z,29.88
2023-05-06T08:41:54.450Z,29.91
2023-05-06T08:42:59.475Z,29.91
2023-05-06T08:44:03.893Z,29.89
2023-05-06T08:45:07.108Z,29.90
2023-05-06T08:46:10.174Z,29.91
2023-05-06T08:47:12.347Z,29.89
2023-05-06T08:48:14.402Z,29.90
2023-05-06T08:49:16.781Z,29.88
2023-05-06T08:50:18.850Z,29.88
2023-05-06T08:51:28.520Z,29.89
2023-05-06T08:52:31.640Z,29.85
2023-05-06T08:53:35.236Z,29.82
2023-05-06T08:54:38.462Z,29.80
2023-05-06T08:55:45.633Z,29.78
2023-05-06T08:56:57.608Z,29.76
2023-05-06T08:58:00.496Z,29.71
2023-05-06T08:59:02.677Z,29.69
2023-05-06T09:00:05.974Z,29.64
2023-05-06T09:01:08.333Z,29.61
2023-05-06T09:02:11.694Z,29.60
2023-05-06T09:03:13.841Z,29.57
2023-05-06T09:04:18.420Z,29.55
2023-05-06T09:05:20.565Z,29.53
2023-05-06T09:06:24.378Z,29.52
2023-05-06T09:07:26.302Z,29.49
2023-05-06T09:08:28.221Z,29.47
2023-05-06T09:09:30.173Z,29.45
2023-05-06T09:10:37.828Z,29.43
2023-05-06T09:11:39.718Z,29.41
2023-05-06T09:12:41.698Z,29.42
2023-05-06T09:13:43.673Z,29.44
2023-05-06T09:14:49.442Z,29.42
2023-05-06T09:15:55.039Z,29.44
2023-05-06T09:16:57.181Z,29.45
2023-05-06T09:18:01.417Z,29.47
2023-05-06T09:19:03.675Z,29.48
2023-05-06T09:20:09.189Z,29.48
2023-05-06T09:21:11.171Z,29.50
2023-05-06T09:22:13.416Z,29.50
2023-05-06T09:23:18.102Z,29.49
2023-05-06T09:24:21.216Z,29.49
2023-05-06T09:25:23.348Z,29.50
2023-05-06T09:26:27.381Z,29.47
2023-05-06T09:27:33.397Z,29.49
2023-05-06T09:28:35.678Z,29.47
2023-05-06T09:29:37.497Z,29.47
2023-05-06T09:30:46.478Z,29.47
2023-05-06T09:31:48.550Z,29.45
2023-05-06T09:32:53.260Z,29.44
2023-05-06T09:33:57.878Z,29.43
2023-05-06T09:35:01.216Z,29.42
2023-05-06T09:36:04.908Z,29.40
2023-05-06T09:37:06.848Z,29.39
2023-05-06T09:38:09.906Z,29.38
2023-05-06T09:39:11.732Z,29.37
2023-05-06T09:40:14.321Z,29.36
2023-05-06T09:41:21.034Z,29.34
2023-05-06T09:42:30.585Z,29.35
2023-05-06T09:43:32.828Z,29.34
2023-05-06T09:44:35.152Z,29.34
2023-05-06T09:45:37.318Z,29.34
2023-05-06T09:46:40.852Z,29.33
2023-05-06T09:47:43.090Z,29.35
2023-05-06T09:48:47.094Z,29.35
2023-05-06T09:49:49.302Z,29.36
2023-05-06T09:50:53.540Z,29.37
2023-05-06T09:51:57.701Z,29.40
2023-05-06T09:53:03.659Z,29.40
2023-05-06T09:54:06.866Z,29.33
2023-05-06T09:55:11.048Z,29.42
2023-05-06T09:56:15.711Z,29.45
2023-05-06T09:57:19.782Z,29.45
2023-05-06T09:58:22.828Z,29.46
2023-05-06T09:59:28.192Z,29.49
2023-05-06T10:00:32.381Z,29.50
2023-05-06T10:01:37.662Z,29.52
2023-05-06T10:02:41.673Z,29.54
2023-05-06T10:03:46.434Z,29.55
2023-05-06T10:04:49.865Z,29.57
2023-05-06T10:05:54.796Z,29.61
2023-05-06T10:06:57.962Z,29.60
2023-05-06T10:08:01.503Z,29.61
2023-05-06T10:09:06.266Z,29.64
2023-05-06T10:10:12.276Z,29.67
2023-05-06T10:11:15.799Z,29.67
2023-05-06T10:12:19.154Z,29.69
2023-05-06T10:13:24.977Z,29.70
2023-05-06T10:14:27.033Z,29.74
2023-05-06T10:15:30.602Z,29.75
2023-05-06T10:16:36.717Z,29.76
2023-05-06T10:17:41.971Z,29.80
2023-05-06T10:18:46.488Z,29.80
2023-05-06T10:19:52.236Z,29.82
2023-05-06T10:20:55.407Z,29.83
2023-05-06T10:22:09.185Z,29.87
2023-05-06T10:23:36.206Z,29.90
2023-05-06T10:24:55.921Z,29.93
2023-05-06T10:26:06.384Z,29.92
2023-05-06T10:27:12.472Z,29.92
2023-05-06T10:28:31.232Z,29.93
2023-05-06T10:29:36.191Z,29.95
2023-05-06T10:30:40.493Z,29.94
2023-05-06T10:31:56.833Z,29.99
2023-05-06T10:33:04.704Z,29.99
2023-05-06T10:34:09.288Z,29.99
2023-05-06T10:35:28.093Z,30.02
2023-05-06T10:36:33.938Z,30.04
2023-05-06T10:37:38.293Z,30.02
2023-05-06T10:38:47.380Z,30.05
2023-05-06T10:39:49.734Z,30.05
2023-05-06T10:40:53.646Z,30.08
2023-05-06T10:41:56.704Z,30.10
2023-05-06T10:43:31.244Z,30.16
2023-05-06T10:44:59.828Z,30.16
2023-05-06T10:46:09.358Z,30.14
2023-05-06T10:47:11.606Z,30.12
2023-05-06T10:48:13.561Z,30.13
2023-05-06T10:49:16.947Z,30.13
2023-05-06T10:50:27.019Z,30.16
2023-05-06T10:51:29.332Z,30.15
2023-05-06T10:52:45.999Z,30.20
2023-05-06T10:54:02.566Z,30.22
2023-05-06T10:55:38.165Z,30.26
2023-05-06T10:56:50.252Z,30.25
2023-05-06T10:58:01.588Z,30.23
2023-05-06T10:59:25.799Z,30.27
2023-05-06T11:00:32.610Z,30.27
2023-05-06T11:01:40.792Z,30.26
2023-05-06T11:02:44.887Z,30.28
2023-05-06T11:03:50.687Z,30.28
2023-05-06T11:05:01.825Z,30.31
2023-05-06T11:06:04.169Z,30.31
2023-05-06T11:07:21.729Z,30.33
2023-05-06T11:08:27.265Z,30.35
2023-05-06T11:09:29.592Z,30.35
2023-05-06T11:10:34.869Z,30.36
2023-05-06T11:12:02.144Z,30.40
2023-05-06T11:13:29.070Z,30.41
2023-05-06T11:14:38.707Z,30.40
2023-05-06T11:15:41.346Z,30.38
2023-05-06T11:16:51.187Z,30.40
2023-05-06T11:17:57.274Z,30.41
2023-05-06T11:18:59.833Z,30.40
2023-05-06T11:20:24.392Z,30.45
2023-05-06T11:21:32.306Z,30.46
2023-05-06T11:22:41.058Z,30.45
2023-05-06T11:23:55.393Z,30.46
2023-05-06T11:24:57.578Z,30.46
2023-05-06T11:26:00.385Z,30.45
2023-05-06T11:27:02.527Z,30.47
2023-05-06T11:28:11.924Z,30.48
2023-05-06T11:29:16.858Z,30.50
2023-05-06T11:30:18.651Z,30.50
2023-05-06T11:31:22.488Z,30.53
2023-05-06T11:32:30.103Z,30.53
2023-05-06T11:33:37.260Z,30.54
2023-05-06T11:34:39.862Z,30.55
2023-05-06T11:35:42.279Z,30.53
2023-05-06T11:36:51.473Z,30.58
2023-05-06T11:37:53.489Z,30.56
2023-05-06T11:38:56.653Z,30.57
2023-05-06T11:39:58.551Z,30.57
2023-05-06T11:41:01.453Z,30.58
2023-05-06T11:42:07.785Z,30.62
2023-05-06T11:43:14.481Z,30.64
2023-05-06T11:44:31.355Z,30.65
2023-05-06T11:45:50.705Z,30.67
2023-05-06T11:46:57.151Z,30.62
2023-05-06T11:47:59.110Z,30.64
2023-05-06T11:49:01.213Z,30.64
2023-05-06T11:50:07.569Z,30.66
2023-05-06T11:51:09.731Z,30.65
2023-05-06T11:52:13.200Z,30.68
2023-05-06T11:53:19.416Z,30.69
2023-05-06T11:54:22.974Z,30.70
2023-05-06T11:55:26.208Z,30.69
2023-05-06T11:56:28.440Z,30.72
2023-05-06T11:57:30.284Z,30.71
2023-05-06T11:58:32.570Z,30.73
2023-05-06T11:59:38.011Z,30.74
2023-05-06T12:00:55.968Z,30.80
2023-05-06T12:02:00.701Z,30.79
2023-05-06T12:03:03.949Z,30.79
2023-05-06T12:04:06.206Z,30.78
2023-05-06T12:05:09.871Z,30.80
2023-05-06T12:06:12.824Z,30.79
2023-05-06T12:07:16.439Z,30.80
2023-05-06T12:08:28.456Z,30.83
2023-05-06T12:09:31.143Z,30.83
2023-05-06T12:10:33.833Z,30.84
2023-05-06T12:11:37.433Z,30.86
2023-05-06T12:12:39.533Z,30.87
2023-05-06T12:13:41.925Z,30.87
2023-05-06T12:14:45.580Z,30.88
2023-05-06T12:15:49.955Z,30.89
2023-05-06T12:16:54.091Z,30.87
2023-05-06T12:17:58.267Z,30.81
2023-05-06T12:19:00.917Z,30.89
2023-05-06T12:20:04.466Z,30.92
2023-05-06T12:21:07.439Z,30.92
2023-05-06T12:22:16.270Z,30.93
2023-05-06T12:23:18.194Z,30.94
2023-05-06T12:24:32.228Z,30.98
2023-05-06T12:25:34.462Z,30.96
2023-05-06T12:26:47.266Z,31.01
2023-05-06T12:27:49.086Z,31.00
2023-05-06T12:29:08.621Z,31.03
2023-05-06T12:30:11.668Z,31.00
2023-05-06T12:31:22.734Z,31.03
2023-05-06T12:32:24.912Z,31.00
2023-05-06T12:33:26.729Z,31.02
2023-05-06T12:34:40.726Z,31.04
2023-05-06T12:35:42.653Z,31.05
2023-05-06T12:36:47.341Z,31.04
2023-05-06T12:37:49.515Z,31.05
2023-05-06T12:38:56.664Z,31.07
2023-05-06T12:39:59.645Z,31.07
2023-05-06T12:41:01.961Z,31.07
2023-05-06T12:42:04.480Z,31.07
2023-05-06T12:43:06.748Z,31.09
2023-05-06T12:44:33.547Z,31.15
2023-05-06T12:45:36.498Z,31.11
2023-05-06T12:46:52.461Z,31.13
2023-05-06T12:48:00.280Z,31.14
2023-05-06T12:49:03.780Z,31.12
2023-05-06T12:50:06.465Z,31.13
2023-05-06T12:51:19.613Z,31.17
2023-05-06T12:52:28.523Z,31.16
2023-05-06T12:53:35.989Z,31.17
2023-05-06T12:54:38.522Z,31.16
2023-05-06T12:55:45.349Z,31.16
2023-05-06T12:56:47.267Z,31.14
2023-05-06T12:57:49.428Z,31.15
2023-05-06T12:58:59.710Z,31.21
2023-05-06T13:00:03.563Z,31.19
2023-05-06T13:01:07.996Z,31.19
2023-05-06T13:02:10.211Z,31.17
2023-05-06T13:03:13.964Z,31.22
2023-05-06T13:04:15.886Z,31.22
2023-05-06T13:05:17.844Z,31.23
2023-05-06T13:06:19.791Z,31.25
2023-05-06T13:07:22.711Z,31.23
2023-05-06T13:08:24.660Z,31.25
2023-05-06T13:09:26.869Z,31.25
2023-05-06T13:10:28.768Z,31.26
2023-05-06T13:11:30.631Z,31.26
2023-05-06T13:12:33.058Z,31.27
2023-05-06T13:13:34.967Z,31.29
2023-05-06T13:14:39.823Z,31.29
2023-05-06T13:15:42.904Z,31.32
2023-05-06T13:16:45.524Z,31.33
2023-05-06T13:17:48.784Z,31.35
2023-05-06T13:18:50.931Z,31.35
2023-05-06T13:19:54.222Z,31.36
2023-05-06T13:20:56.196Z,31.35
2023-05-06T13:21:58.784Z,31.36
2023-05-06T13:23:00.770Z,31.39
2023-05-06T13:24:03.619Z,31.37
2023-05-06T13:25:06.075Z,31.39
2023-05-06T13:26:07.948Z,31.39
2023-05-06T13:27:09.941Z,31.39
2023-05-06T13:28:11.860Z,31.40
2023-05-06T13:29:13.758Z,31.39
2023-05-06T13:30:16.935Z,31.39
2023-05-06T13:31:18.924Z,31.39
2023-05-06T13:32:21.039Z,31.38
2023-05-06T13:33:23.269Z,31.37
2023-05-06T13:34:25.213Z,31.36
2023-05-06T13:35:27.119Z,31.37
2023-05-06T13:36:29.357Z,31.39
2023-05-06T13:37:31.783Z,31.40
2023-05-06T13:38:33.780Z,31.40
2023-05-06T13:39:35.864Z,31.37
2023-05-06T13:40:37.747Z,31.39
2023-05-06T13:41:39.750Z,31.38
2023-05-06T13:42:41.701Z,31.38
2023-05-06T13:43:43.671Z,31.41